createdAt,value
2022-10-17T00:00:16.401Z,101755.72
2022-10-17T00:02:42.772Z,101771.94
2022-10-17T00:05:09.299Z,101758.25
2022-10-17T00:07:35.655Z,101775.47
2022-10-17T00:10:02.051Z,101776.44
2022-10-17T00:12:28.521Z,101771.34
2022-10-17T00:14:54.911Z,101786.91
2022-10-17T00:17:21.402Z,101794.53
2022-10-17T00:19:47.782Z,101773.06
2022-10-17T00:22:14.326Z,101781.28
2022-10-17T00:24:40.761Z,101789.59
2022-10-17T00:27:07.155Z,101790.56
2022-10-17T00:29:33.633Z,101796.78
2022-10-17T00:31:59.994Z,101801.31
2022-10-17T00:34:29.678Z,101790.44
2022-10-17T00:36:56.047Z,101797.94
2022-10-17T00:39:22.502Z,101801.63
2022-10-17T00:41:48.861Z,101781.84
2022-10-17T00:44:30.402Z,101796.81
2022-10-17T00:47:00.124Z,101807.13
2022-10-17T00:49:28.754Z,101799.06
2022-10-17T00:52:01.946Z,101796.66
2022-10-17T00:54:33.434Z,101793.84
2022-10-17T00:57:01.176Z,101802.16
2022-10-17T00:59:28.375Z,101820.66
2022-10-17T01:02:05.787Z,101806.97
2022-10-17T01:04:32.475Z,101805.28
2022-10-17T01:06:59.007Z,101825.03
2022-10-17T01:09:26.394Z,101831.13
2022-10-17T01:12:33.867Z,101833.13
2022-10-17T01:15:06.614Z,101839.34
2022-10-17T01:17:44.159Z,101821.38
2022-10-17T01:20:49.148Z,101812.66
2022-10-17T01:23:27.090Z,101813.78
2022-10-17T01:26:21.241Z,101807.28
2022-10-17T01:29:05.965Z,101798.81
2022-10-17T01:31:39.993Z,101806.16
2022-10-17T01:34:44.213Z,101783.13
2022-10-17T01:37:34.011Z,101803.88
2022-10-17T01:40:10.504Z,101797.97
2022-10-17T01:42:48.996Z,101801.06
2022-10-17T01:45:23.755Z,101777.50
2022-10-17T01:47:52.690Z,101772.53
2022-10-17T01:50:28.434Z,101778.59
2022-10-17T01:53:33.688Z,101793.16
2022-10-17T01:56:03.735Z,101778.59
2022-10-17T01:58:50.078Z,101774.22
2022-10-17T02:01:18.485Z,101763.34
2022-10-17T02:03:46.378Z,101771.97
2022-10-17T02:06:12.764Z,101762.06
2022-10-17T02:08:45.060Z,101764.06
2022-10-17T02:11:16.512Z,101749.81
2022-10-17T02:13:49.017Z,101755.00
2022-10-17T02:16:42.549Z,101750.66
2022-10-17T02:19:39.203Z,101742.59
2022-10-17T02:22:05.544Z,101748.50
2022-10-17T02:24:45.593Z,101748.50
2022-10-17T02:27:23.680Z,101733.69
2022-10-17T02:29:57.605Z,101733.53
2022-10-17T02:32:30.960Z,101726.50
2022-10-17T02:35:00.637Z,101728.84
2022-10-17T02:37:30.204Z,101728.84
2022-10-17T02:39:59.507Z,101727.03
2022-10-17T02:42:27.565Z,101734.66
2022-10-17T02:44:58.211Z,101728.44
2022-10-17T02:47:34.883Z,101712.59
2022-10-17T02:50:01.248Z,101705.53
2022-10-17T02:52:45.388Z,101712.75
2022-10-17T02:55:32.701Z,101715.97
2022-10-17T02:58:03.847Z,101705.53
2022-10-17T03:00:31.798Z,101699.63
2022-10-17T03:02:58.300Z,101712.59
2022-10-17T03:05:29.617Z,101702.41
2022-10-17T03:07:56.955Z,101706.78
2022-10-17T03:10:23.356Z,101701.41
2022-10-17T03:12:49.711Z,101720.09
2022-10-17T03:15:16.117Z,101702.41
2022-10-17T03:17:42.721Z,101704.69
2022-10-17T03:20:09.684Z,101689.81
2022-10-17T03:22:36.066Z,101692.81
2022-10-17T03:25:02.507Z,101698.03
2022-10-17T03:27:32.188Z,101693.09
2022-10-17T03:29:58.836Z,101692.13
2022-10-17T03:32:25.319Z,101685.75
2022-10-17T03:34:51.779Z,101679.69
2022-10-17T03:37:18.209Z,101686.28
2022-10-17T03:39:44.590Z,101702.41
2022-10-17T03:42:10.959Z,101686.75
2022-10-17T03:44:37.361Z,101688.16
2022-10-17T03:47:03.788Z,101678.16
2022-10-17T03:49:30.191Z,101681.53
2022-10-17T03:51:56.598Z,101685.50
2022-10-17T03:54:22.962Z,101691.72
2022-10-17T03:56:49.437Z,101676.75
2022-10-17T03:59:16.457Z,101693.44
2022-10-17T04:01:43.323Z,101671.41
2022-10-17T04:04:10.162Z,101683.84
2022-10-17T04:06:37.777Z,101690.06
2022-10-17T04:09:05.264Z,101675.81
2022-10-17T04:11:31.824Z,101678.19
2022-10-17T04:13:59.622Z,101675.09
2022-10-17T04:16:26.713Z,101680.63
2022-10-17T04:18:58.875Z,101676.50
2022-10-17T04:21:27.383Z,101682.59
2022-10-17T04:23:59.227Z,101683.56
2022-10-17T04:26:25.736Z,101668.03
2022-10-17T04:28:52.481Z,101657.47
2022-10-17T04:31:19.004Z,101673.13
2022-10-17T04:33:50.013Z,101669.44
2022-10-17T04:36:18.774Z,101667.03
2022-10-17T04:38:45.417Z,101661.41
2022-10-17T04:41:14.397Z,101663.09
2022-10-17T04:43:42.726Z,101669.03
2022-10-17T04:46:14.388Z,101665.22
2022-10-17T04:48:40.953Z,101666.06
2022-10-17T04:51:20.624Z,101655.34
2022-10-17T04:53:49.799Z,101650.41
2022-10-17T04:56:18.932Z,101656.19
2022-10-17T04:58:46.366Z,101648.00
2022-10-17T05:01:15.130Z,101663.66
2022-10-17T05:03:41.975Z,101662.94
2022-10-17T05:06:11.333Z,101668.03
2022-10-17T05:08:38.180Z,101655.59
2022-10-17T05:11:05.870Z,101647.16
2022-10-17T05:13:33.188Z,101653.63
2022-10-17T05:16:00.884Z,101654.75
2022-10-17T05:18:28.722Z,101648.84
2022-10-17T05:20:55.450Z,101642.91
2022-10-17T05:23:21.893Z,101646.59
2022-10-17T05:25:48.344Z,101640.38
2022-10-17T05:28:14.682Z,101645.75
2022-10-17T05:30:41.046Z,101644.31
2022-10-17T05:33:07.436Z,101648.97
2022-10-17T05:35:33.802Z,101659.84
2022-10-17T05:38:00.581Z,101650.41
2022-10-17T05:40:27.022Z,101649.72
2022-10-17T05:42:53.472Z,101641.66
2022-10-17T05:45:19.858Z,101648.00
2022-10-17T05:47:46.305Z,101657.88
2022-10-17T05:50:13.153Z,101652.09
2022-10-17T05:52:40.559Z,101655.34
2022-10-17T05:55:08.973Z,101646.88
2022-10-17T05:57:35.541Z,101644.31
2022-10-17T06:00:02.168Z,101643.06
2022-10-17T06:02:28.956Z,101641.38
2022-10-17T06:04:55.669Z,101636.72
2022-10-17T06:07:22.050Z,101647.44
2022-10-17T06:09:48.434Z,101646.19
2022-10-17T06:12:14.861Z,101638.41
2022-10-17T06:14:41.245Z,101638.53
2022-10-17T06:17:09.998Z,101646.44
2022-10-17T06:19:41.377Z,101639.94
2022-10-17T06:22:08.132Z,101640.78
2022-10-17T06:24:34.513Z,101638.69
2022-10-17T06:27:00.862Z,101635.44
2022-10-17T06:29:27.216Z,101635.25
2022-10-17T06:31:54.339Z,101621.31
2022-10-17T06:34:21.114Z,101631.03
2022-10-17T06:36:47.683Z,101628.91
2022-10-17T06:39:14.313Z,101636.34
2022-10-17T06:41:44.559Z,101637.63
2022-10-17T06:44:11.528Z,101635.31
2022-10-17T06:46:40.588Z,101622.78
2022-10-17T06:49:07.616Z,101637.31
2022-10-17T06:51:37.879Z,101631.09
2022-10-17T06:54:04.414Z,101641.50
2022-10-17T06:56:30.847Z,101639.41
2022-10-17T06:58:57.262Z,101634.88
2022-10-17T07:01:23.647Z,101649.66
2022-10-17T07:03:50.132Z,101650.91
2022-10-17T07:06:17.945Z,101658.22
2022-10-17T07:08:45.619Z,101640.66
2022-10-17T07:11:14.257Z,101648.81
2022-10-17T07:13:41.029Z,101650.63
2022-10-17T07:16:08.305Z,101646.31
2022-10-17T07:18:34.936Z,101640.94
2022-10-17T07:21:01.458Z,101676.91
2022-10-17T07:23:28.236Z,101670.50
2022-10-17T07:26:03.400Z,101657.28
2022-10-17T07:28:29.940Z,101677.25
2022-10-17T07:30:56.346Z,101651.22
2022-10-17T07:33:22.854Z,101661.72
2022-10-17T07:35:49.522Z,101656.22
2022-10-17T07:38:15.896Z,101642.63
2022-10-17T07:40:42.485Z,101662.81
2022-10-17T07:43:08.869Z,101674.63
2022-10-17T07:45:35.207Z,101658.53
2022-10-17T07:48:01.585Z,101665.50
2022-10-17T07:50:29.130Z,101678.66
2022-10-17T07:52:55.487Z,101681.38
2022-10-17T07:55:21.927Z,101672.03
2022-10-17T07:57:48.254Z,101678.47
2022-10-17T08:00:14.826Z,101671.81
2022-10-17T08:02:41.268Z,101680.81
2022-10-17T08:05:08.060Z,101669.25
2022-10-17T08:07:34.440Z,101667.78
2022-10-17T08:10:00.933Z,101664.78
2022-10-17T08:12:27.748Z,101676.97
2022-10-17T08:14:54.552Z,101660.44
2022-10-17T08:17:21.591Z,101668.41
2022-10-17T08:19:48.025Z,101675.50
2022-10-17T08:22:14.413Z,101668.56
2022-10-17T08:24:42.711Z,101649.13
2022-10-17T08:27:11.498Z,101637.81
2022-10-17T08:29:39.151Z,101646.22
2022-10-17T08:32:08.984Z,101641.59
2022-10-17T08:34:36.443Z,101642.44
2022-10-17T08:37:02.898Z,101645.75
2022-10-17T08:39:29.456Z,101634.59
2022-10-17T08:42:03.334Z,101627.91
2022-10-17T08:44:35.786Z,101633.75
2022-10-17T08:47:06.520Z,101636.22
2022-10-17T08:49:52.231Z,101634.13
2022-10-17T08:52:43.618Z,101642.00
2022-10-17T08:55:21.090Z,101648.69
2022-10-17T08:57:48.473Z,101649.31
2022-10-17T09:00:19.491Z,101634.75
2022-10-17T09:02:48.817Z,101656.56
2022-10-17T09:05:28.339Z,101659.13
2022-10-17T09:08:28.808Z,101658.78
2022-10-17T09:11:09.859Z,101652.81
2022-10-17T09:14:06.208Z,101660.03
2022-10-17T09:16:48.970Z,101651.00
2022-10-17T09:19:26.852Z,101661.47
2022-10-17T09:22:04.319Z,101655.53
2022-10-17T09:24:41.667Z,101653.81
2022-10-17T09:27:26.069Z,101646.03
2022-10-17T09:30:17.168Z,101666.00
2022-10-17T09:32:57.879Z,101670.66
2022-10-17T09:35:26.698Z,101674.28
2022-10-17T09:37:54.135Z,101674.16
2022-10-17T09:40:32.292Z,101652.47
2022-10-17T09:43:01.376Z,101659.53
2022-10-17T09:45:33.589Z,101660.56
2022-10-17T09:48:05.973Z,101667.00
2022-10-17T09:50:34.012Z,101663.59
2022-10-17T09:53:08.520Z,101666.84
2022-10-17T09:55:42.513Z,101660.72
2022-10-17T09:58:10.780Z,101653.44
2022-10-17T10:00:40.236Z,101672.19
2022-10-17T10:03:12.921Z,101660.31
2022-10-17T10:05:40.526Z,101664.75
2022-10-17T10:08:17.815Z,101659.50
2022-10-17T10:10:45.183Z,101663.47
2022-10-17T10:13:14.442Z,101658.66
2022-10-17T10:15:43.547Z,101664.31
2022-10-17T10:18:25.053Z,101660.50
2022-10-17T10:21:21.390Z,101677.91
2022-10-17T10:24:13.192Z,101682.13
2022-10-17T10:26:45.922Z,101681.50
2022-10-17T10:29:35.769Z,101686.53
2022-10-17T10:32:26.197Z,101689.66
2022-10-17T10:34:57.494Z,101686.94
2022-10-17T10:37:41.793Z,101685.25
2022-10-17T10:40:18.516Z,101669.31
2022-10-17T10:42:48.912Z,101671.63
2022-10-17T10:45:49.368Z,101666.81
2022-10-17T10:48:20.583Z,101679.19
2022-10-17T10:50:49.461Z,101672.91
2022-10-17T10:53:56.898Z,101681.72
2022-10-17T10:56:34.115Z,101668.09
2022-10-17T10:59:10.059Z,101679.22
2022-10-17T11:02:20.975Z,101684.69
2022-10-17T11:04:54.883Z,101689.91
2022-10-17T11:07:33.645Z,101690.09
2022-10-17T11:10:09.220Z,101688.63
2022-10-17T11:12:41.638Z,101681.28
2022-10-17T11:15:49.578Z,101693.03
2022-10-17T11:18:33.239Z,101689.66
2022-10-17T11:21:13.398Z,101699.50
2022-10-17T11:23:53.175Z,101695.31
2022-10-17T11:26:26.720Z,101694.03
2022-10-17T11:28:54.599Z,101704.94
2022-10-17T11:31:23.553Z,101702.00
2022-10-17T11:33:57.153Z,101698.66
2022-10-17T11:36:30.132Z,101698.47
2022-10-17T11:39:08.984Z,101684.84
2022-10-17T11:41:42.940Z,101685.03
2022-10-17T11:44:27.340Z,101691.53
2022-10-17T11:47:35.856Z,101678.97
2022-10-17T11:53:13.367Z,101679.38
2022-10-17T11:55:41.762Z,101672.44
2022-10-17T11:58:23.370Z,101684.38
2022-10-17T12:01:05.027Z,101698.19
2022-10-17T12:03:41.327Z,101701.72
2022-10-17T12:06:29.342Z,101731.25
2022-10-17T12:09:27.592Z,101743.56
2022-10-17T12:11:59.814Z,101748.25
2022-10-17T12:14:47.530Z,101731.47
2022-10-17T12:17:38.937Z,101728.50
2022-10-17T12:20:21.175Z,101739.66
2022-10-17T12:22:49.542Z,101736.00
2022-10-17T12:25:32.686Z,101750.88
2022-10-17T12:28:30.798Z,101753.97
2022-10-17T12:31:05.719Z,101739.63
2022-10-17T12:34:00.136Z,101737.22
2022-10-17T12:36:26.429Z,101739.25
2022-10-17T12:39:01.610Z,101734.75
2022-10-17T12:41:40.232Z,101746.56
2022-10-17T12:44:15.704Z,101750.69
2022-10-17T12:46:51.847Z,101749.34
2022-10-17T12:49:39.420Z,101742.81
2022-10-17T12:52:17.658Z,101754.03
2022-10-17T12:55:00.227Z,101752.59
2022-10-17T12:58:00.264Z,101774.41
2022-10-17T13:00:37.841Z,101772.25
2022-10-17T13:03:18.319Z,101776.56
2022-10-17T13:05:57.496Z,101788.69
2022-10-17T13:08:38.786Z,101779.69
2022-10-17T13:11:06.759Z,101782.84
2022-10-17T13:13:42.422Z,101840.94
2022-10-17T13:16:09.194Z,101856.03
2022-10-17T13:18:35.941Z,101807.53
2022-10-17T13:21:14.483Z,101786.41
2022-10-17T13:23:41.097Z,101773.53
2022-10-17T13:26:10.217Z,101786.22
2022-10-17T13:28:39.319Z,101762.63
2022-10-17T13:31:06.456Z,101753.72
2022-10-17T13:33:39.204Z,101762.31
2022-10-17T13:36:15.814Z,101758.28
2022-10-17T13:38:43.238Z,101756.16
2022-10-17T13:41:34.931Z,101777.09
2022-10-17T13:44:07.558Z,101786.59
2022-10-17T13:46:38.458Z,101792.69
2022-10-17T13:49:30.907Z,101786.78
2022-10-17T13:51:58.427Z,101807.59
2022-10-17T13:54:42.814Z,101821.97
2022-10-17T13:57:23.378Z,101744.59
2022-10-17T13:59:54.523Z,101767.00
2022-10-17T14:02:31.909Z,101736.84
2022-10-17T14:05:17.141Z,101820.66
2022-10-17T14:08:11.793Z,101774.00
2022-10-17T14:10:45.707Z,101749.59
2022-10-17T14:13:51.717Z,101702.81
2022-10-17T14:17:00.623Z,101767.59
2022-10-17T14:20:16.099Z,101789.88
2022-10-17T14:23:04.449Z,101705.69
2022-10-17T14:25:53.176Z,101707.47
2022-10-17T14:28:28.685Z,101708.31
2022-10-17T14:31:36.894Z,101730.28
2022-10-17T14:34:05.487Z,101812.47
2022-10-17T14:36:42.709Z,101740.44
2022-10-17T14:39:29.947Z,101778.75
2022-10-17T14:42:04.268Z,101759.88
2022-10-17T14:44:50.511Z,101814.38
2022-10-17T14:47:50.270Z,101783.84
2022-10-17T14:50:22.466Z,101849.28
2022-10-17T14:53:26.463Z,101860.81
2022-10-17T14:56:05.647Z,101854.81
2022-10-17T14:58:35.303Z,101870.03
2022-10-17T15:01:28.248Z,101841.00
2022-10-17T15:04:02.947Z,101834.75
2022-10-17T15:06:47.118Z,101794.91
2022-10-17T15:09:20.686Z,101805.25
2022-10-17T15:11:48.137Z,101812.19
2022-10-17T15:14:28.694Z,101841.00
2022-10-17T15:17:08.289Z,101847.81
2022-10-17T15:19:35.548Z,101848.28
2022-10-17T15:22:07.900Z,101825.19
2022-10-17T15:24:56.848Z,101817.94
2022-10-17T15:27:29.429Z,101849.69
2022-10-17T15:30:04.966Z,101877.88
2022-10-17T15:32:38.080Z,101884.13
2022-10-17T15:35:14.214Z,101866.75
2022-10-17T15:37:44.032Z,101923.03
2022-10-17T15:40:25.871Z,101853.41
2022-10-17T15:43:00.771Z,101916.06
2022-10-17T15:46:02.131Z,101915.03
2022-10-17T15:48:32.135Z,101817.63
2022-10-17T15:51:02.291Z,101903.09
2022-10-17T15:53:30.797Z,101914.69
2022-10-17T15:56:06.275Z,101850.56
2022-10-17T15:58:40.915Z,101918.97
2022-10-17T16:01:07.990Z,101927.28
2022-10-17T16:03:47.161Z,101886.03
2022-10-17T16:06:32.397Z,101850.94
2022-10-17T16:09:05.604Z,101932.50
2022-10-17T16:11:40.024Z,101872.72
2022-10-17T16:14:15.928Z,101880.31
2022-10-17T16:16:43.387Z,101902.09
2022-10-17T16:19:14.053Z,101934.72
2022-10-17T16:21:47.534Z,101918.34
2022-10-17T16:24:27.591Z,101903.97
2022-10-17T16:27:06.715Z,101907.50
2022-10-17T16:29:39.371Z,101918.50
2022-10-17T16:32:19.904Z,101954.34
2022-10-17T16:34:50.312Z,101913.63
2022-10-17T16:37:23.486Z,101932.72
2022-10-17T16:39:52.746Z,101949.97
2022-10-17T16:42:38.879Z,101903.97
2022-10-17T16:45:08.155Z,101857.03
2022-10-17T16:47:38.211Z,101913.81
2022-10-17T16:50:08.400Z,101955.34
2022-10-17T16:52:45.329Z,101979.88
2022-10-17T16:55:19.962Z,101955.72
2022-10-17T16:57:50.091Z,101954.03
2022-10-17T17:00:17.740Z,101975.66
2022-10-17T17:02:47.631Z,101938.16
2022-10-17T17:05:18.654Z,101980.41
2022-10-17T17:07:50.997Z,101949.13
2022-10-17T17:10:20.731Z,101979.91
2022-10-17T17:12:48.704Z,101969.22
2022-10-17T17:15:18.424Z,101982.94
2022-10-17T17:17:55.754Z,101939.66
2022-10-17T17:20:22.963Z,101954.00
2022-10-17T17:22:53.351Z,101988.03
2022-10-17T17:25:25.900Z,101994.09
2022-10-17T17:27:52.836Z,102000.03
2022-10-17T17:30:22.615Z,102001.34
2022-10-17T17:32:49.948Z,101960.94
2022-10-17T17:35:19.611Z,101936.03
2022-10-17T17:37:52.233Z,101952.63
2022-10-17T17:40:21.832Z,101996.13
2022-10-17T17:42:52.990Z,101996.44
2022-10-17T17:45:25.342Z,101968.38
2022-10-17T17:47:55.346Z,101994.75
2022-10-17T17:50:38.430Z,101937.06
2022-10-17T17:53:05.915Z,102039.75
2022-10-17T17:55:33.008Z,102032.63
2022-10-17T17:57:59.782Z,102020.97
2022-10-17T18:00:26.691Z,102020.78
2022-10-17T18:02:53.217Z,102025.53
2022-10-17T18:05:19.908Z,102026.38
2022-10-17T18:07:46.389Z,102025.38
2022-10-17T18:12:42.199Z,102020.13
2022-10-17T18:15:08.821Z,102010.13
2022-10-17T18:17:35.343Z,102007.94
2022-10-17T18:20:02.730Z,102024.34
2022-10-17T18:22:32.621Z,102029.78
2022-10-17T18:24:59.511Z,102018.28
2022-10-17T18:27:25.856Z,102026.22
2022-10-17T18:29:52.353Z,102019.44
2022-10-17T18:32:18.974Z,102031.47
2022-10-17T18:34:45.437Z,102022.84
2022-10-17T18:37:11.793Z,102039.56
2022-10-17T18:39:38.538Z,102023.31
2022-10-17T18:42:04.906Z,102043.97
2022-10-17T18:44:31.290Z,102033.97
2022-10-17T18:47:03.008Z,102048.69
2022-10-17T18:49:30.762Z,102063.22
2022-10-17T18:51:57.133Z,102069.81
2022-10-17T18:54:24.377Z,102069.97
2022-10-17T18:56:52.331Z,102070.63
2022-10-17T18:59:19.920Z,102075.34
2022-10-17T19:01:47.121Z,102065.97
2022-10-17T19:04:14.056Z,102076.59
2022-10-17T19:06:41.005Z,102070.84
2022-10-17T19:09:08.865Z,102069.47
2022-10-17T19:11:36.415Z,102053.31
2022-10-17T19:14:07.927Z,102083.91
2022-10-17T19:16:35.983Z,102069.44
2022-10-17T19:19:14.375Z,102077.47
2022-10-17T19:21:40.919Z,102089.63
2022-10-17T19:24:11.424Z,102078.38
2022-10-17T19:26:39.673Z,102070.25
2022-10-17T19:29:06.614Z,102076.91
2022-10-17T19:31:34.671Z,102091.00
2022-10-17T19:34:01.160Z,102060.25
2022-10-17T19:36:33.354Z,102094.53
2022-10-17T19:39:02.015Z,102097.88
2022-10-17T19:41:28.563Z,102087.53
2022-10-17T19:43:55.202Z,102095.22
2022-10-17T19:46:24.466Z,102097.63
2022-10-17T19:48:51.723Z,102100.94
2022-10-17T19:51:20.247Z,102107.50
2022-10-17T19:53:47.400Z,102111.50
2022-10-17T19:56:13.864Z,102110.41
2022-10-17T19:58:46.584Z,102119.22
2022-10-17T20:01:16.804Z,102127.09
2022-10-17T20:03:43.890Z,102137.16
2022-10-17T20:06:10.591Z,102142.72
2022-10-17T20:08:38.487Z,102145.72
2022-10-17T20:11:11.561Z,102146.84
2022-10-17T20:13:38.371Z,102147.31
2022-10-17T20:16:06.599Z,102149.31
2022-10-17T20:18:33.141Z,102149.63
2022-10-17T20:21:05.471Z,102142.84
2022-10-17T20:23:32.336Z,102150.22
2022-10-17T20:26:13.620Z,102157.72
2022-10-17T20:28:49.733Z,102164.25
2022-10-17T20:31:16.537Z,102173.19
2022-10-17T20:33:42.966Z,102169.38
2022-10-17T20:36:11.784Z,102188.66
2022-10-17T20:38:38.459Z,102185.13
2022-10-17T20:41:09.889Z,102192.34
2022-10-17T20:43:37.304Z,102195.91
2022-10-17T20:46:21.890Z,102198.59
2022-10-17T20:48:54.273Z,102201.28
2022-10-17T20:51:21.373Z,102214.47
2022-10-17T20:53:48.787Z,102217.03
2022-10-17T20:56:27.839Z,102223.41
2022-10-17T20:59:03.224Z,102220.44
2022-10-17T21:01:31.758Z,102230.06
2022-10-17T21:04:06.058Z,102233.59
2022-10-17T21:06:42.611Z,102218.88
2022-10-17T21:09:09.222Z,102222.13
2022-10-17T21:11:35.616Z,102232.06
2022-10-17T21:14:04.893Z,102229.22
2022-10-17T21:16:34.080Z,102216.75
2022-10-17T21:19:00.908Z,102234.91
2022-10-17T21:21:30.588Z,102230.66
2022-10-17T21:24:01.264Z,102224.72
2022-10-17T21:26:30.778Z,102221.31
2022-10-17T21:28:57.706Z,102208.72
2022-10-17T21:31:26.599Z,102219.59
2022-10-17T21:34:00.623Z,102211.13
2022-10-17T21:36:28.160Z,102221.59
2022-10-17T21:38:56.404Z,102230.72
2022-10-17T21:41:25.621Z,102201.38
2022-10-17T21:43:55.302Z,102222.91
2022-10-17T21:46:22.257Z,102222.66
2022-10-17T21:48:50.414Z,102230.44
2022-10-17T21:51:18.845Z,102220.25
2022-10-17T21:53:46.123Z,102229.59
2022-10-17T21:56:15.857Z,102231.59
2022-10-17T21:58:42.770Z,102228.03
2022-10-17T22:01:18.006Z,102228.19
2022-10-17T22:03:47.030Z,102223.78
2022-10-17T22:09:23.402Z,102227.03
2022-10-17T22:11:53.079Z,102226.19
2022-10-17T22:14:21.337Z,102226.19
2022-10-17T22:16:48.926Z,102235.97
2022-10-17T22:19:18.817Z,102242.06
2022-10-17T22:21:45.375Z,102232.00
2022-10-17T22:24:14.322Z,102248.03
2022-10-17T22:26:41.674Z,102252.28
2022-10-17T22:29:08.828Z,102246.19
2022-10-17T22:31:36.321Z,102244.56
2022-10-17T22:34:05.258Z,102229.41
2022-10-17T22:36:32.605Z,102237.19
2022-10-17T22:39:02.122Z,102237.47
2022-10-17T22:41:28.486Z,102239.03
2022-10-17T22:43:54.844Z,102241.88
2022-10-17T22:46:21.347Z,102227.59
2022-10-17T22:48:47.797Z,102244.72
2022-10-17T22:51:14.911Z,102240.94
2022-10-17T22:53:41.694Z,102246.19
2022-10-17T22:56:18.406Z,102254.13
2022-10-17T22:58:45.384Z,102249.03
2022-10-17T23:01:18.712Z,102252.56
2022-10-17T23:03:45.236Z,102242.06
2022-10-17T23:06:12.645Z,102252.84
2022-10-17T23:08:39.567Z,102255.69
2022-10-17T23:11:06.915Z,102238.25
2022-10-17T23:13:33.525Z,102251.31
2022-10-17T23:15:59.883Z,102242.50
2022-10-17T23:18:27.012Z,102256.25
2022-10-17T23:20:53.989Z,102246.06
2022-10-17T23:23:21.255Z,102254.56
2022-10-17T23:25:48.003Z,102249.75
2022-10-17T23:28:14.680Z,102255.56
2022-10-17T23:30:41.148Z,102259.25
2022-10-17T23:33:09.299Z,102249.75
2022-10-17T23:35:36.079Z,102252.59
2022-10-17T23:38:02.859Z,102249.19
2022-10-17T23:40:29.920Z,102254.44
2022-10-17T23:42:56.285Z,102250.22
2022-10-17T23:45:22.686Z,102229.63
2022-10-17T23:47:49.103Z,102250.47
2022-10-17T23:50:16.332Z,102240.97
2022-10-17T23:52:42.738Z,102262.94
2022-10-17T23:55:09.677Z,102256.44
2022-10-17T23:57:36.085Z,102268.63
